sensor_id;sensor_type;location;lat;lon;timestamp;pressure;altitude;pressure_sealevel;temperature;humidity
13581;BME280;6861;46.170;7.222;2022-07-06T00:01:54;96440.84;;;26.06;34.01
13581;BME280;6861;46.170;7.222;2022-07-06T00:04:22;96445.78;;;26.04;33.81
13581;BME280;6861;46.170;7.222;2022-07-06T00:06:51;96431.91;;;25.99;33.88
13581;BME280;6861;46.170;7.222;2022-07-06T00:09:18;96433.22;;;25.89;34.22
13581;BME280;6861;46.170;7.222;2022-07-06T00:11:45;96443.97;;;25.89;33.88
13581;BME280;6861;46.170;7.222;2022-07-06T00:14:12;96439.28;;;25.86;33.98
13581;BME280;6861;46.170;7.222;2022-07-06T00:16:39;96447.69;;;25.85;33.76
13581;BME280;6861;46.170;7.222;2022-07-06T00:19:07;96450.72;;;25.83;34.12
13581;BME280;6861;46.170;7.222;2022-07-06T00:21:34;96449.16;;;25.82;34.28
13581;BME280;6861;46.170;7.222;2022-07-06T00:24:03;96451.34;;;25.76;33.98
13581;BME280;6861;46.170;7.222;2022-07-06T00:26:30;96450.06;;;25.70;34.42
13581;BME280;6861;46.170;7.222;2022-07-06T00:28:57;96453.44;;;25.67;34.13
13581;BME280;6861;46.170;7.222;2022-07-06T00:31:27;96459.94;;;25.66;34.07
13581;BME280;6861;46.170;7.222;2022-07-06T00:33:54;96456.47;;;25.66;34.67
13581;BME280;6861;46.170;7.222;2022-07-06T00:36:21;96454.91;;;25.65;34.44
13581;BME280;6861;46.170;7.222;2022-07-06T00:38:48;96459.31;;;25.57;34.66
13581;BME280;6861;46.170;7.222;2022-07-06T00:41:17;96468.56;;;25.60;34.09
13581;BME280;6861;46.170;7.222;2022-07-06T00:43:51;96466.22;;;25.58;34.62
13581;BME280;6861;46.170;7.222;2022-07-06T00:46:23;96471.50;;;25.55;34.68
13581;BME280;6861;46.170;7.222;2022-07-06T00:48:53;96478.69;;;25.51;34.45
13581;BME280;6861;46.170;7.222;2022-07-06T00:51:22;96474.72;;;25.44;34.79
13581;BME280;6861;46.170;7.222;2022-07-06T00:53:52;96483.53;;;25.45;34.87
13581;BME280;6861;46.170;7.222;2022-07-06T00:56:23;96490.38;;;25.42;34.69
13581;BME280;6861;46.170;7.222;2022-07-06T00:58:51;96492.63;;;25.40;34.83
13581;BME280;6861;46.170;7.222;2022-07-06T01:01:18;96482.59;;;25.37;34.76
13581;BME280;6861;46.170;7.222;2022-07-06T01:03:45;96482.59;;;25.37;35.15
13581;BME280;6861;46.170;7.222;2022-07-06T01:06:12;96479.50;;;25.35;34.96
13581;BME280;6861;46.170;7.222;2022-07-06T01:08:39;96483.72;;;25.36;35.02
13581;BME280;6861;46.170;7.222;2022-07-06T01:11:07;96475.25;;;25.34;35.22
13581;BME280;6861;46.170;7.222;2022-07-06T01:13:36;96476.38;;;25.33;35.23
13581;BME280;6861;46.170;7.222;2022-07-06T01:16:04;96474.03;;;25.32;34.94
13581;BME280;6861;46.170;7.222;2022-07-06T01:18:32;96469.72;;;25.27;35.10
13581;BME280;6861;46.170;7.222;2022-07-06T01:21:11;96471.53;;;25.23;35.34
13581;BME280;6861;46.170;7.222;2022-07-06T01:23:40;96474.91;;;25.20;35.55
13581;BME280;6861;46.170;7.222;2022-07-06T01:26:10;96472.09;;;25.13;35.74
13581;BME280;6861;46.170;7.222;2022-07-06T01:28:37;96465.53;;;25.10;35.88
13581;BME280;6861;46.170;7.222;2022-07-06T01:31:13;96466.56;;;25.06;35.92
13581;BME280;6861;46.170;7.222;2022-07-06T01:33:42;96457.47;;;24.95;35.88
13581;BME280;6861;46.170;7.222;2022-07-06T01:36:11;96460.81;;;24.92;36.42
13581;BME280;6861;46.170;7.222;2022-07-06T01:38:46;96465.31;;;24.88;36.41
13581;BME280;6861;46.170;7.222;2022-07-06T01:41:13;96463.75;;;24.87;36.68
13581;BME280;6861;46.170;7.222;2022-07-06T01:43:40;96457.09;;;24.80;36.62
13581;BME280;6861;46.170;7.222;2022-07-06T01:46:07;96472.38;;;24.80;37.06
13581;BME280;6861;46.170;7.222;2022-07-06T01:48:34;96478.84;;;24.79;37.42
13581;BME280;6861;46.170;7.222;2022-07-06T01:51:02;96478.06;;;24.78;37.55
13581;BME280;6861;46.170;7.222;2022-07-06T01:53:30;96472.78;;;24.66;37.72
13581;BME280;6861;46.170;7.222;2022-07-06T01:55:57;96476.47;;;24.46;38.30
13581;BME280;6861;46.170;7.222;2022-07-06T01:58:25;96474.78;;;24.26;38.77
13581;BME280;6861;46.170;7.222;2022-07-06T02:00:52;96478.69;;;24.16;39.04
13581;BME280;6861;46.170;7.222;2022-07-06T02:03:19;96483.97;;;24.00;39.42
13581;BME280;6861;46.170;7.222;2022-07-06T02:05:46;96480.53;;;23.88;39.94
13581;BME280;6861;46.170;7.222;2022-07-06T02:08:12;96486.69;;;23.76;40.17
13581;BME280;6861;46.170;7.222;2022-07-06T02:10:41;96489.69;;;23.74;40.44
13581;BME280;6861;46.170;7.222;2022-07-06T02:13:08;96489.69;;;23.74;40.31
13581;BME280;6861;46.170;7.222;2022-07-06T02:15:35;96482.00;;;23.73;40.44
13581;BME280;6861;46.170;7.222;2022-07-06T02:18:02;96488.81;;;23.70;40.56
13581;BME280;6861;46.170;7.222;2022-07-06T02:20:29;96486.47;;;23.69;40.62
13581;BME280;6861;46.170;7.222;2022-07-06T02:22:56;96484.22;;;23.71;40.29
13581;BME280;6861;46.170;7.222;2022-07-06T02:25:23;96483.56;;;23.74;40.07
13581;BME280;6861;46.170;7.222;2022-07-06T02:27:51;96486.69;;;23.76;39.94
13581;BME280;6861;46.170;7.222;2022-07-06T02:30:19;96489.78;;;23.78;39.59
13581;BME280;6861;46.170;7.222;2022-07-06T02:32:46;96489.69;;;23.74;39.98
13581;BME280;6861;46.170;7.222;2022-07-06T02:35:13;96495.59;;;23.68;39.74
13581;BME280;6861;46.170;7.222;2022-07-06T02:37:40;96495.38;;;23.61;40.43
13581;BME280;6861;46.170;7.222;2022-07-06T02:40:09;96490.00;;;23.48;40.16
13581;BME280;6861;46.170;7.222;2022-07-06T02:42:36;96496.47;;;23.47;40.64
13581;BME280;6861;46.170;7.222;2022-07-06T02:45:06;96493.16;;;23.38;40.46
13581;BME280;6861;46.170;7.222;2022-07-06T02:47:33;96500.72;;;23.36;40.55
13581;BME280;6861;46.170;7.222;2022-07-06T02:50:00;96499.16;;;23.35;40.75
13581;BME280;6861;46.170;7.222;2022-07-06T02:52:27;96503.28;;;23.33;40.69
13581;BME280;6861;46.170;7.222;2022-07-06T02:54:54;96509.16;;;23.26;41.40
13581;BME280;6861;46.170;7.222;2022-07-06T02:57:21;96500.03;;;23.15;41.30
13581;BME280;6861;46.170;7.222;2022-07-06T02:59:49;96514.28;;;23.19;41.72
13581;BME280;6861;46.170;7.222;2022-07-06T03:02:17;96507.78;;;22.96;42.08
13581;BME280;6861;46.170;7.222;2022-07-06T03:04:44;96518.44;;;22.83;42.01
13581;BME280;6861;46.170;7.222;2022-07-06T03:07:11;96525.47;;;22.67;42.96
13581;BME280;6861;46.170;7.222;2022-07-06T03:09:38;96510.75;;;22.49;42.89
13581;BME280;6861;46.170;7.222;2022-07-06T03:12:07;96528.31;;;22.50;43.34
13581;BME280;6861;46.170;7.222;2022-07-06T03:14:34;96525.84;;;22.45;43.51
13581;BME280;6861;46.170;7.222;2022-07-06T03:17:01;96531.19;;;22.45;43.15
13581;BME280;6861;46.170;7.222;2022-07-06T03:19:29;96530.31;;;22.53;43.23
13581;BME280;6861;46.170;7.222;2022-07-06T03:21:56;96527.22;;;22.63;43.61
13581;BME280;6861;46.170;7.222;2022-07-06T03:24:23;96530.13;;;22.70;43.39
13581;BME280;6861;46.170;7.222;2022-07-06T03:26:50;96536.84;;;22.76;43.34
13581;BME280;6861;46.170;7.222;2022-07-06T03:29:18;96536.19;;;22.79;43.15
13581;BME280;6861;46.170;7.222;2022-07-06T03:31:46;96537.75;;;22.80;43.43
13581;BME280;6861;46.170;7.222;2022-07-06T03:34:13;96536.19;;;22.79;43.49
13581;BME280;6861;46.170;7.222;2022-07-06T03:36:41;96534.63;;;22.78;43.12
13581;BME280;6861;46.170;7.222;2022-07-06T03:39:08;96539.94;;;22.78;43.31
13581;BME280;6861;46.170;7.222;2022-07-06T03:41:35;96542.81;;;22.73;43.53
13581;BME280;6861;46.170;7.222;2022-07-06T03:44:03;96525.13;;;22.69;43.08
13581;BME280;6861;46.170;7.222;2022-07-06T03:46:30;96534.25;;;22.68;43.38
13581;BME280;6861;46.170;7.222;2022-07-06T03:48:57;96528.78;;;22.64;42.98
13581;BME280;6861;46.170;7.222;2022-07-06T03:51:24;96536.59;;;22.69;42.96
13581;BME280;6861;46.170;7.222;2022-07-06T03:53:52;96534.38;;;22.71;43.34
13581;BME280;6861;46.170;7.222;2022-07-06T03:56:19;96540.59;;;22.75;43.52
13581;BME280;6861;46.170;7.222;2022-07-06T03:58:56;96540.94;;;22.74;43.30
13581;BME280;6861;46.170;7.222;2022-07-06T04:01:24;96542.94;;;22.77;43.11
13581;BME280;6861;46.170;7.222;2022-07-06T04:03:51;96542.63;;;22.78;43.31
13581;BME280;6861;46.170;7.222;2022-07-06T04:06:19;96543.09;;;22.80;43.02
13581;BME280;6861;46.170;7.222;2022-07-06T04:08:46;96541.06;;;22.77;43.69
13581;BME280;6861;46.170;7.222;2022-07-06T04:11:14;96550.38;;;22.71;43.79
13581;BME280;6861;46.170;7.222;2022-07-06T04:13:41;96543.34;;;22.67;43.89
13581;BME280;6861;46.170;7.222;2022-07-06T04:16:08;96561.91;;;22.63;43.96
13581;BME280;6861;46.170;7.222;2022-07-06T04:18:35;96552.34;;;22.62;43.33
13581;BME280;6861;46.170;7.222;2022-07-06T04:21:02;96556.91;;;22.62;44.11
13581;BME280;6861;46.170;7.222;2022-07-06T04:23:29;96554.56;;;22.60;43.77
13581;BME280;6861;46.170;7.222;2022-07-06T04:25:56;96562.09;;;22.58;43.71
13581;BME280;6861;46.170;7.222;2022-07-06T04:28:25;96554.31;;;22.53;43.62
13581;BME280;6861;46.170;7.222;2022-07-06T04:30:52;96561.09;;;22.50;44.19
13581;BME280;6861;46.170;7.222;2022-07-06T04:33:19;96554.97;;;22.50;43.58
13581;BME280;6861;46.170;7.222;2022-07-06T04:35:46;96561.75;;;22.47;43.86
13581;BME280;6861;46.170;7.222;2022-07-06T04:38:13;96575.53;;;22.49;44.25
13581;BME280;6861;46.170;7.222;2022-07-06T04:40:40;96560.41;;;22.53;44.58
13581;BME280;6861;46.170;7.222;2022-07-06T04:43:07;96574.34;;;22.59;44.58
13581;BME280;6861;46.170;7.222;2022-07-06T04:45:36;96572.13;;;22.61;44.40
13581;BME280;6861;46.170;7.222;2022-07-06T04:48:04;96566.13;;;22.64;44.28
13581;BME280;6861;46.170;7.222;2022-07-06T04:50:31;96566.59;;;22.66;44.57
13581;BME280;6861;46.170;7.222;2022-07-06T04:52:58;96565.34;;;22.64;44.45
13581;BME280;6861;46.170;7.222;2022-07-06T04:55:26;96561.56;;;22.65;44.16
13581;BME280;6861;46.170;7.222;2022-07-06T04:57:53;96557.03;;;22.65;44.18
13581;BME280;6861;46.170;7.222;2022-07-06T05:00:20;96565.03;;;22.65;44.87
13581;BME280;6861;46.170;7.222;2022-07-06T05:02:49;96566.25;;;22.68;45.05
13581;BME280;6861;46.170;7.222;2022-07-06T05:05:16;96567.94;;;22.72;44.26
13581;BME280;6861;46.170;7.222;2022-07-06T05:07:43;96568.06;;;22.76;44.51
13581;BME280;6861;46.170;7.222;2022-07-06T05:10:12;96562.88;;;22.79;44.67
13581;BME280;6861;46.170;7.222;2022-07-06T05:12:39;96562.69;;;22.84;44.12
13581;BME280;6861;46.170;7.222;2022-07-06T05:15:08;96554.94;;;22.92;44.19
13581;BME280;6861;46.170;7.222;2022-07-06T05:17:35;96569.41;;;23.03;43.87
13581;BME280;6861;46.170;7.222;2022-07-06T05:20:05;96567.22;;;23.17;43.65
13581;BME280;6861;46.170;7.222;2022-07-06T05:22:32;96563.94;;;23.32;43.69
13581;BME280;6861;46.170;7.222;2022-07-06T05:24:59;96565.47;;;23.45;43.15
13581;BME280;6861;46.170;7.222;2022-07-06T05:27:26;96568.84;;;23.67;43.12
13581;BME280;6861;46.170;7.222;2022-07-06T05:29:53;96568.63;;;23.84;42.86
13581;BME280;6861;46.170;7.222;2022-07-06T05:32:20;96568.84;;;24.03;42.37
13581;BME280;6861;46.170;7.222;2022-07-06T05:34:47;96578.84;;;24.18;42.48
13581;BME280;6861;46.170;7.222;2022-07-06T05:37:16;96581.59;;;24.34;41.71
13581;BME280;6861;46.170;7.222;2022-07-06T05:39:42;96572.09;;;24.49;41.51
13581;BME280;6861;46.170;7.222;2022-07-06T05:42:10;96571.03;;;24.66;41.38
13581;BME280;6861;46.170;7.222;2022-07-06T05:44:37;96579.13;;;24.81;41.22
13581;BME280;6861;46.170;7.222;2022-07-06T05:47:05;96581.09;;;24.97;41.13
13581;BME280;6861;46.170;7.222;2022-07-06T05:49:49;96573.44;;;25.11;40.86
13581;BME280;6861;46.170;7.222;2022-07-06T05:52:35;96583.03;;;25.28;40.62
13581;BME280;6861;46.170;7.222;2022-07-06T05:55:03;96580.69;;;25.42;40.66
13581;BME280;6861;46.170;7.222;2022-07-06T05:57:30;96582.53;;;25.54;40.43
13581;BME280;6861;46.170;7.222;2022-07-06T05:59:57;96578.22;;;25.65;40.13
13581;BME280;6861;46.170;7.222;2022-07-06T06:02:24;96580.47;;;25.78;39.88
13581;BME280;6861;46.170;7.222;2022-07-06T06:04:50;96572.31;;;25.91;39.99
13581;BME280;6861;46.170;7.222;2022-07-06T06:07:17;96576.84;;;26.06;39.61
13581;BME280;6861;46.170;7.222;2022-07-06T06:09:46;96575.63;;;26.19;39.40
13581;BME280;6861;46.170;7.222;2022-07-06T06:12:13;96578.53;;;26.30;39.12
13581;BME280;6861;46.170;7.222;2022-07-06T06:14:40;96574.19;;;26.41;39.04
13581;BME280;6861;46.170;7.222;2022-07-06T06:17:07;96575.19;;;26.52;38.76
13581;BME280;6861;46.170;7.222;2022-07-06T06:19:35;96576.19;;;26.63;38.59
13581;BME280;6861;46.170;7.222;2022-07-06T06:22:03;96574.06;;;26.72;38.49
13581;BME280;6861;46.170;7.222;2022-07-06T06:24:30;96567.78;;;26.84;37.94
13581;BME280;6861;46.170;7.222;2022-07-06T06:26:59;96571.75;;;26.94;37.62
13581;BME280;6861;46.170;7.222;2022-07-06T06:29:26;96572.34;;;27.03;37.00
13581;BME280;6861;46.170;7.222;2022-07-06T06:31:53;96566.38;;;27.13;37.18
13581;BME280;6861;46.170;7.222;2022-07-06T06:34:20;96564.97;;;27.19;36.74
13581;BME280;6861;46.170;7.222;2022-07-06T06:36:47;96563.94;;;27.27;36.26
13581;BME280;6861;46.170;7.222;2022-07-06T06:39:14;96564.06;;;27.34;36.09
13581;BME280;6861;46.170;7.222;2022-07-06T06:41:41;96567.31;;;27.43;36.05
13581;BME280;6861;46.170;7.222;2022-07-06T06:44:10;96557.84;;;27.53;35.94
13581;BME280;6861;46.170;7.222;2022-07-06T06:46:37;96556.09;;;27.61;36.06
13581;BME280;6861;46.170;7.222;2022-07-06T06:49:05;96556.16;;;27.64;35.39
13581;BME280;6861;46.170;7.222;2022-07-06T06:51:32;96541.22;;;27.67;35.59
13581;BME280;6861;46.170;7.222;2022-07-06T06:53:59;96548.63;;;27.77;36.08
13581;BME280;6861;46.170;7.222;2022-07-06T06:56:26;96545.31;;;27.87;36.00
13581;BME280;6861;46.170;7.222;2022-07-06T06:58:53;96547.75;;;27.96;35.51
13581;BME280;6861;46.170;7.222;2022-07-06T07:01:22;96545.16;;;28.03;35.76
13581;BME280;6861;46.170;7.222;2022-07-06T07:03:50;96546.03;;;28.11;34.58
13581;BME280;6861;46.170;7.222;2022-07-06T07:06:18;96545.00;;;28.19;34.63
13581;BME280;6861;46.170;7.222;2022-07-06T07:08:45;96537.09;;;28.29;34.76
13581;BME280;6861;46.170;7.222;2022-07-06T07:11:13;96542.25;;;28.42;34.73
13581;BME280;6861;46.170;7.222;2022-07-06T07:13:40;96544.34;;;28.55;34.65
13581;BME280;6861;46.170;7.222;2022-07-06T07:16:07;96541.38;;;28.67;34.18
13581;BME280;6861;46.170;7.222;2022-07-06T07:18:36;96539.97;;;28.81;34.42
13581;BME280;6861;46.170;7.222;2022-07-06T07:21:03;96533.97;;;28.91;34.15
13581;BME280;6861;46.170;7.222;2022-07-06T07:23:30;96532.91;;;29.02;33.65
13581;BME280;6861;46.170;7.222;2022-07-06T07:25:57;96545.03;;;29.19;33.61
13581;BME280;6861;46.170;7.222;2022-07-06T07:28:24;96533.56;;;29.29;33.54
13581;BME280;6861;46.170;7.222;2022-07-06T07:30:51;96536.72;;;29.39;33.37
13581;BME280;6861;46.170;7.222;2022-07-06T07:33:18;96536.03;;;29.49;33.34
13581;BME280;6861;46.170;7.222;2022-07-06T07:35:47;96534.56;;;29.58;32.88
13581;BME280;6861;46.170;7.222;2022-07-06T07:38:14;96529.22;;;29.65;32.66
13581;BME280;6861;46.170;7.222;2022-07-06T07:40:41;96524.63;;;29.69;32.74
13581;BME280;6861;46.170;7.222;2022-07-06T07:43:08;96526.22;;;29.78;32.73
13581;BME280;6861;46.170;7.222;2022-07-06T07:45:35;96526.25;;;29.81;32.82
13581;BME280;6861;46.170;7.222;2022-07-06T07:48:02;96520.91;;;29.88;32.91
13581;BME280;6861;46.170;7.222;2022-07-06T07:50:30;96513.19;;;29.90;32.71
13581;BME280;6861;46.170;7.222;2022-07-06T07:52:58;96520.19;;;29.98;32.35
13581;BME280;6861;46.170;7.222;2022-07-06T07:55:25;96517.16;;;30.04;32.18
13581;BME280;6861;46.170;7.222;2022-07-06T07:57:52;96517.19;;;30.07;31.78
13581;BME280;6861;46.170;7.222;2022-07-06T08:00:19;96518.75;;;30.12;32.22
13581;BME280;6861;46.170;7.222;2022-07-06T08:02:47;96514.19;;;30.23;31.96
13581;BME280;6861;46.170;7.222;2022-07-06T08:05:14;96518.06;;;30.29;31.94
13581;BME280;6861;46.170;7.222;2022-07-06T08:07:41;96514.22;;;30.41;31.72
13581;BME280;6861;46.170;7.222;2022-07-06T08:10:10;96510.03;;;30.50;31.69
13581;BME280;6861;46.170;7.222;2022-07-06T08:12:37;96507.38;;;30.61;30.63
13581;BME280;6861;46.170;7.222;2022-07-06T08:15:05;96504.31;;;30.70;30.51
13581;BME280;6861;46.170;7.222;2022-07-06T08:17:32;96505.50;;;30.76;30.86
13581;BME280;6861;46.170;7.222;2022-07-06T08:19:59;96498.56;;;30.85;30.31
13581;BME280;6861;46.170;7.222;2022-07-06T08:22:26;96504.78;;;30.96;29.80
13581;BME280;6861;46.170;7.222;2022-07-06T08:24:55;96491.25;;;31.07;30.19
13581;BME280;6861;46.170;7.222;2022-07-06T08:27:25;96486.66;;;31.18;29.86
13581;BME280;6861;46.170;7.222;2022-07-06T08:29:52;96487.03;;;31.27;29.53
13581;BME280;6861;46.170;7.222;2022-07-06T08:32:22;96485.09;;;31.39;29.17
13581;BME280;6861;46.170;7.222;2022-07-06T08:34:49;96481.22;;;31.50;28.85
13581;BME280;6861;46.170;7.222;2022-07-06T08:37:16;96474.25;;;31.60;28.98
13581;BME280;6861;46.170;7.222;2022-07-06T08:39:43;96469.63;;;31.71;28.17
13581;BME280;6861;46.170;7.222;2022-07-06T08:42:11;96467.28;;;31.80;27.87
13581;BME280;6861;46.170;7.222;2022-07-06T08:44:40;96473.84;;;31.90;28.33
13581;BME280;6861;46.170;7.222;2022-07-06T08:47:09;96470.34;;;32.00;27.95
13581;BME280;6861;46.170;7.222;2022-07-06T08:49:37;96473.75;;;32.08;28.39
13581;BME280;6861;46.170;7.222;2022-07-06T09:05:34;96458.50;;;32.53;28.88
13581;BME280;6861;46.170;7.222;2022-07-06T09:08:02;96458.44;;;32.64;28.53
13581;BME280;6861;46.170;7.222;2022-07-06T09:10:29;96461.09;;;32.71;28.06
13581;BME280;6861;46.170;7.222;2022-07-06T09:13:07;96448.72;;;32.77;27.57
13581;BME280;6861;46.170;7.222;2022-07-06T09:15:36;96446.75;;;32.81;27.48
13581;BME280;6861;46.170;7.222;2022-07-06T09:18:05;96446.69;;;32.88;28.04
13581;BME280;6861;46.170;7.222;2022-07-06T09:20:34;96443.97;;;32.92;27.70
13581;BME280;6861;46.170;7.222;2022-07-06T09:23:03;96447.00;;;32.97;27.80
13581;BME280;6861;46.170;7.222;2022-07-06T09:25:31;96453.53;;;33.03;28.12
13581;BME280;6861;46.170;7.222;2022-07-06T09:27:59;96446.13;;;33.07;28.00
13581;BME280;6861;46.170;7.222;2022-07-06T09:30:27;96441.81;;;33.13;28.55
13581;BME280;6861;46.170;7.222;2022-07-06T09:32:56;96433.25;;;33.18;28.66
13581;BME280;6861;46.170;7.222;2022-07-06T09:35:25;96435.16;;;33.25;28.50
13581;BME280;6861;46.170;7.222;2022-07-06T09:38:08;96430.84;;;33.31;28.18
13581;BME280;6861;46.170;7.222;2022-07-06T09:40:38;96429.25;;;33.37;27.81
13581;BME280;6861;46.170;7.222;2022-07-06T09:43:13;96422.25;;;33.40;28.33
13581;BME280;6861;46.170;7.222;2022-07-06T09:45:42;96427.97;;;33.49;27.62
13581;BME280;6861;46.170;7.222;2022-07-06T09:48:10;96423.28;;;33.53;27.29
13581;BME280;6861;46.170;7.222;2022-07-06T09:50:39;96422.47;;;33.56;27.36
13581;BME280;6861;46.170;7.222;2022-07-06T09:53:07;96418.19;;;33.59;27.58
13581;BME280;6861;46.170;7.222;2022-07-06T09:55:34;96411.59;;;33.60;27.62
13581;BME280;6861;46.170;7.222;2022-07-06T09:58:02;96400.31;;;33.61;27.37
13581;BME280;6861;46.170;7.222;2022-07-06T10:00:29;96413.50;;;33.63;27.07
13581;BME280;6861;46.170;7.222;2022-07-06T10:02:57;96410.38;;;33.64;27.85
13581;BME280;6861;46.170;7.222;2022-07-06T10:05:26;96409.19;;;33.65;27.69
13581;BME280;6861;46.170;7.222;2022-07-06T10:07:58;96403.41;;;33.63;27.37
13581;BME280;6861;46.170;7.222;2022-07-06T10:10:29;96397.25;;;33.59;27.67
13581;BME280;6861;46.170;7.222;2022-07-06T10:12:57;96401.88;;;33.62;27.48
13581;BME280;6861;46.170;7.222;2022-07-06T10:15:25;96389.47;;;33.61;27.88
13581;BME280;6861;46.170;7.222;2022-07-06T10:17:53;96397.16;;;33.66;27.63
13581;BME280;6861;46.170;7.222;2022-07-06T10:20:22;96392.53;;;33.63;27.86
13581;BME280;6861;46.170;7.222;2022-07-06T10:22:49;96388.28;;;33.62;27.63
13581;BME280;6861;46.170;7.222;2022-07-06T10:25:17;96380.16;;;33.62;27.66
13581;BME280;6861;46.170;7.222;2022-07-06T10:27:47;96381.75;;;33.56;27.70
13581;BME280;6861;46.170;7.222;2022-07-06T10:30:15;96378.69;;;33.54;28.01
13581;BME280;6861;46.170;7.222;2022-07-06T10:32:44;96376.41;;;33.49;28.16
13581;BME280;6861;46.170;7.222;2022-07-06T10:35:12;96364.91;;;33.38;28.02
13581;BME280;6861;46.170;7.222;2022-07-06T10:37:39;96371.97;;;33.28;28.01
13581;BME280;6861;46.170;7.222;2022-07-06T10:40:08;96363.44;;;33.26;28.65
13581;BME280;6861;46.170;7.222;2022-07-06T10:42:58;96367.00;;;33.19;29.28
13581;BME280;6861;46.170;7.222;2022-07-06T10:45:50;96358.91;;;33.12;28.89
13581;BME280;6861;46.170;7.222;2022-07-06T10:48:17;96359.78;;;33.02;28.37
13581;BME280;6861;46.170;7.222;2022-07-06T10:50:48;96363.38;;;32.92;28.47
13581;BME280;6861;46.170;7.222;2022-07-06T10:53:17;96351.50;;;32.79;28.40
13581;BME280;6861;46.170;7.222;2022-07-06T10:55:46;96344.63;;;32.64;27.98
13581;BME280;6861;46.170;7.222;2022-07-06T10:58:34;96337.34;;;32.50;27.97
13581;BME280;6861;46.170;7.222;2022-07-06T11:01:02;96333.19;;;32.38;28.65
13581;BME280;6861;46.170;7.222;2022-07-06T11:03:37;96338.66;;;32.31;28.17
13581;BME280;6861;46.170;7.222;2022-07-06T11:06:13;96332.09;;;32.21;27.71
13581;BME280;6861;46.170;7.222;2022-07-06T11:09:02;96336.03;;;32.10;28.61
13581;BME280;6861;46.170;7.222;2022-07-06T11:11:39;96330.69;;;32.03;28.44
13581;BME280;6861;46.170;7.222;2022-07-06T11:14:10;96334.97;;;32.00;28.67
13581;BME280;6861;46.170;7.222;2022-07-06T11:16:58;96322.59;;;31.96;27.99
13581;BME280;6861;46.170;7.222;2022-07-06T11:19:28;96310.25;;;31.91;28.31
13581;BME280;6861;46.170;7.222;2022-07-06T11:21:56;96311.81;;;31.88;27.95
13581;BME280;6861;46.170;7.222;2022-07-06T11:24:24;96305.66;;;31.84;28.25
13581;BME280;6861;46.170;7.222;2022-07-06T11:26:53;96306.81;;;31.83;28.25
13581;BME280;6861;46.170;7.222;2022-07-06T11:29:23;96307.19;;;31.85;28.71
13581;BME280;6861;46.170;7.222;2022-07-06T11:31:52;96296.34;;;31.85;28.63
13581;BME280;6861;46.170;7.222;2022-07-06T11:34:21;96288.25;;;31.85;28.74
13581;BME280;6861;46.170;7.222;2022-07-06T11:36:49;96298.66;;;31.90;28.85
13581;BME280;6861;46.170;7.222;2022-07-06T11:39:15;96297.88;;;31.93;28.45
13581;BME280;6861;46.170;7.222;2022-07-06T11:41:42;96287.03;;;31.93;28.37
13581;BME280;6861;46.170;7.222;2022-07-06T11:44:09;96287.81;;;31.94;29.22
13581;BME280;6861;46.170;7.222;2022-07-06T11:46:38;96280.84;;;31.97;28.64
13581;BME280;6861;46.170;7.222;2022-07-06T11:49:07;96282.38;;;31.98;28.83
13581;BME280;6861;46.170;7.222;2022-07-06T11:51:35;96275.78;;;31.99;28.44
13581;BME280;6861;46.170;7.222;2022-07-06T11:54:08;96270.00;;;31.97;28.53
13581;BME280;6861;46.170;7.222;2022-07-06T11:56:35;96265.72;;;31.99;28.68
13581;BME280;6861;46.170;7.222;2022-07-06T11:59:03;96267.63;;;32.06;28.60
13581;BME280;6861;46.170;7.222;2022-07-06T12:01:31;96272.22;;;32.09;28.38
13581;BME280;6861;46.170;7.222;2022-07-06T12:04:00;96254.41;;;32.11;28.01
13581;BME280;6861;46.170;7.222;2022-07-06T12:06:29;96247.44;;;32.14;28.07
13581;BME280;6861;46.170;7.222;2022-07-06T12:08:59;96241.25;;;32.13;28.31
13581;BME280;6861;46.170;7.222;2022-07-06T12:11:31;96236.22;;;32.12;28.38
13581;BME280;6861;46.170;7.222;2022-07-06T12:14:00;96239.31;;;32.14;28.15
13581;BME280;6861;46.170;7.222;2022-07-06T12:16:32;96239.66;;;32.16;27.67
13581;BME280;6861;46.170;7.222;2022-07-06T12:19:02;96235.44;;;32.15;28.04
13581;BME280;6861;46.170;7.222;2022-07-06T12:21:29;96231.16;;;32.17;28.24
13581;BME280;6861;46.170;7.222;2022-07-06T12:23:57;96240.41;;;32.20;28.63
13581;BME280;6861;46.170;7.222;2022-07-06T12:26:26;96228.41;;;32.21;28.80
13581;BME280;6861;46.170;7.222;2022-07-06T12:29:03;96223.00;;;32.21;28.72
13581;BME280;6861;46.170;7.222;2022-07-06T12:31:35;96223.41;;;32.19;29.02
13581;BME280;6861;46.170;7.222;2022-07-06T12:34:04;96211.44;;;32.17;28.43
13581;BME280;6861;46.170;7.222;2022-07-06T12:36:42;96197.84;;;32.24;28.48
13581;BME280;6861;46.170;7.222;2022-07-06T12:39:11;96198.63;;;32.24;28.86
13581;BME280;6861;46.170;7.222;2022-07-06T12:41:44;96194.75;;;32.22;28.22
13581;BME280;6861;46.170;7.222;2022-07-06T12:44:12;96198.22;;;32.26;28.53
13581;BME280;6861;46.170;7.222;2022-07-06T12:46:40;96203.25;;;32.28;28.65
13581;BME280;6861;46.170;7.222;2022-07-06T12:49:15;96191.59;;;32.31;28.99
13581;BME280;6861;46.170;7.222;2022-07-06T12:51:53;96192.38;;;32.31;28.97
13581;BME280;6861;46.170;7.222;2022-07-06T12:54:21;96193.91;;;32.32;28.73
13581;BME280;6861;46.170;7.222;2022-07-06T12:57:03;96186.94;;;32.35;28.73
13581;BME280;6861;46.170;7.222;2022-07-06T12:59:33;96193.47;;;32.37;28.56
13581;BME280;6861;46.170;7.222;2022-07-06T13:02:02;96180.72;;;32.38;28.58
13581;BME280;6861;46.170;7.222;2022-07-06T13:04:31;96187.66;;;32.39;28.30
13581;BME280;6861;46.170;7.222;2022-07-06T13:06:59;96180.72;;;32.38;28.56
13581;BME280;6861;46.170;7.222;2022-07-06T13:09:27;96187.66;;;32.39;27.98
13581;BME280;6861;46.170;7.222;2022-07-06T13:11:54;96177.19;;;32.41;28.22
13581;BME280;6861;46.170;7.222;2022-07-06T13:14:22;96172.53;;;32.45;27.66
13581;BME280;6861;46.170;7.222;2022-07-06T13:16:49;96175.97;;;32.49;28.41
13581;BME280;6861;46.170;7.222;2022-07-06T13:19:16;96174.38;;;32.51;28.25
13581;BME280;6861;46.170;7.222;2022-07-06T13:21:44;96169.69;;;32.55;28.60
13581;BME280;6861;46.170;7.222;2022-07-06T13:24:11;96175.09;;;32.59;29.09
13581;BME280;6861;46.170;7.222;2022-07-06T13:26:38;96174.28;;;32.62;28.60
13581;BME280;6861;46.170;7.222;2022-07-06T13:29:06;96167.28;;;32.65;28.94
13581;BME280;6861;46.170;7.222;2022-07-06T13:31:32;96168.41;;;32.67;28.85